createdAt,value
2022-09-26T00:01:13.867Z,48.38
2022-09-26T00:03:44.440Z,48.78
2022-09-26T00:06:12.494Z,48.72
2022-09-26T00:08:39.859Z,48.87
2022-09-26T00:11:08.642Z,48.94
2022-09-26T00:13:38.350Z,49.03
2022-09-26T00:16:05.885Z,48.97
2022-09-26T00:18:33.097Z,48.91
2022-09-26T00:21:18.800Z,49.14
2022-09-26T00:23:45.981Z,49.13
2022-09-26T00:26:14.722Z,49.46
2022-09-26T00:28:41.980Z,49.28
2022-09-26T00:31:15.405Z,49.31
2022-09-26T00:33:42.522Z,49.36
2022-09-26T00:36:09.362Z,49.34
2022-09-26T00:38:36.020Z,49.33
2022-09-26T00:41:03.202Z,49.68
2022-09-26T00:43:34.228Z,49.75
2022-09-26T00:46:23.089Z,49.80
2022-09-26T00:48:58.397Z,49.89
2022-09-26T00:51:25.249Z,49.58
2022-09-26T00:53:53.391Z,49.58
2022-09-26T00:56:34.031Z,49.76
2022-09-26T00:59:09.802Z,49.90
2022-09-26T01:01:37.077Z,49.68
2022-09-26T01:04:06.080Z,50.56
2022-09-26T01:06:32.829Z,51.01
2022-09-26T01:09:03.296Z,50.83
2022-09-26T01:11:31.621Z,50.50
2022-09-26T01:13:59.226Z,50.22
2022-09-26T01:16:25.959Z,51.00
2022-09-26T01:18:52.614Z,49.98
2022-09-26T01:21:37.776Z,50.79
2022-09-26T01:24:37.507Z,50.39
2022-09-26T01:27:18.760Z,50.33
2022-09-26T01:30:15.196Z,50.35
2022-09-26T01:32:51.010Z,50.13
2022-09-26T01:35:51.802Z,50.24
2022-09-26T01:38:40.107Z,50.43
2022-09-26T01:41:25.016Z,50.61
2022-09-26T01:44:06.772Z,50.90
2022-09-26T01:46:46.452Z,52.20
2022-09-26T01:49:36.059Z,53.04
2022-09-26T01:52:02.910Z,51.87
2022-09-26T01:54:37.572Z,51.62
2022-09-26T01:57:09.384Z,51.08
2022-09-26T01:59:41.787Z,51.05
2022-09-26T02:02:15.295Z,50.76
2022-09-26T02:04:46.154Z,51.01
2022-09-26T02:07:19.677Z,50.44
2022-09-26T02:09:53.483Z,50.79
2022-09-26T02:12:27.641Z,50.65
2022-09-26T02:14:58.228Z,50.66
2022-09-26T02:17:33.718Z,50.72
2022-09-26T02:20:10.598Z,52.80
2022-09-26T02:22:38.859Z,52.07
2022-09-26T02:25:06.345Z,51.88
2022-09-26T02:27:33.208Z,51.35
2022-09-26T02:30:00.064Z,51.10
2022-09-26T02:32:31.963Z,51.54
2022-09-26T02:34:59.892Z,51.92
2022-09-26T02:37:28.944Z,51.46
2022-09-26T02:39:56.203Z,51.30
2022-09-26T02:42:36.671Z,50.49
2022-09-26T02:45:30.094Z,51.00
2022-09-26T02:48:16.550Z,50.67
2022-09-26T02:51:14.239Z,50.57
2022-09-26T02:54:15.230Z,50.42
2022-09-26T02:56:51.972Z,51.00
2022-09-26T02:59:35.169Z,51.97
2022-09-26T03:02:08.289Z,53.54
2022-09-26T03:04:49.073Z,53.29
2022-09-26T03:07:24.277Z,53.42
2022-09-26T03:09:52.834Z,52.56
2022-09-26T03:12:20.785Z,54.46
2022-09-26T03:14:49.521Z,54.33
2022-09-26T03:17:18.952Z,53.58
2022-09-26T03:19:50.843Z,54.11
2022-09-26T03:22:17.454Z,52.99
2022-09-26T03:24:45.588Z,52.92
2022-09-26T03:27:14.478Z,52.43
2022-09-26T03:29:41.170Z,51.96
2022-09-26T03:32:07.877Z,52.60
2022-09-26T03:34:34.557Z,53.08
2022-09-26T03:37:01.829Z,54.31
2022-09-26T03:39:28.393Z,53.78
2022-09-26T03:41:56.451Z,53.15
2022-09-26T03:44:24.391Z,53.51
2022-09-26T03:46:51.871Z,53.74
2022-09-26T03:49:18.463Z,53.49
2022-09-26T03:51:45.932Z,54.21
2022-09-26T03:54:13.486Z,53.92
2022-09-26T03:56:40.931Z,53.13
2022-09-26T03:59:08.724Z,52.79
2022-09-26T04:01:35.550Z,52.37
2022-09-26T04:04:02.229Z,52.69
2022-09-26T04:06:28.880Z,52.89
2022-09-26T04:08:56.483Z,52.61
2022-09-26T04:11:25.335Z,53.28
2022-09-26T04:13:53.991Z,53.10
2022-09-26T04:16:23.120Z,53.25
2022-09-26T04:18:50.471Z,52.97
2022-09-26T04:21:17.394Z,53.52
2022-09-26T04:23:44.494Z,53.28
2022-09-26T04:26:17.498Z,53.86
2022-09-26T04:28:49.520Z,53.13
2022-09-26T04:31:16.270Z,52.84
2022-09-26T04:33:42.900Z,53.22
2022-09-26T04:36:12.015Z,53.13
2022-09-26T04:38:39.319Z,52.76
2022-09-26T04:41:08.608Z,52.71
2022-09-26T04:43:36.456Z,53.04
2022-09-26T04:46:11.139Z,53.23
2022-09-26T04:48:38.266Z,54.71
2022-09-26T04:51:09.676Z,53.55
2022-09-26T04:53:37.490Z,53.27
2022-09-26T04:56:05.134Z,54.09
2022-09-26T04:58:32.474Z,53.90
2022-09-26T05:01:10.123Z,55.29
2022-09-26T05:03:37.934Z,56.00
2022-09-26T05:06:09.073Z,55.34
2022-09-26T05:08:41.135Z,54.78
2022-09-26T05:11:09.227Z,54.78
2022-09-26T05:13:37.886Z,54.63
2022-09-26T05:16:06.323Z,53.49
2022-09-26T05:18:33.728Z,53.21
2022-09-26T05:21:01.302Z,53.87
2022-09-26T05:23:46.440Z,53.84
2022-09-26T05:26:22.298Z,54.14
2022-09-26T05:29:07.658Z,53.35
2022-09-26T05:31:37.735Z,52.43
2022-09-26T05:34:06.250Z,51.69
2022-09-26T05:36:33.586Z,52.67
2022-09-26T05:39:00.559Z,51.90
2022-09-26T05:41:29.551Z,52.06
2022-09-26T05:43:56.556Z,51.53
2022-09-26T05:46:23.927Z,51.59
2022-09-26T05:48:50.804Z,52.07
2022-09-26T05:51:21.133Z,51.25
2022-09-26T05:53:49.582Z,51.74
2022-09-26T05:56:19.198Z,51.62
2022-09-26T05:58:46.234Z,51.21
2022-09-26T06:01:15.805Z,52.52
2022-09-26T06:03:44.574Z,52.03
2022-09-26T06:06:16.811Z,52.61
2022-09-26T06:08:44.252Z,51.68
2022-09-26T06:11:13.967Z,51.03
2022-09-26T06:13:45.727Z,50.63
2022-09-26T06:16:18.575Z,51.19
2022-09-26T06:18:47.000Z,50.72
2022-09-26T06:21:16.056Z,50.16
2022-09-26T06:23:42.858Z,49.94
2022-09-26T06:26:12.929Z,50.34
2022-09-26T06:28:40.257Z,50.83
2022-09-26T06:31:18.820Z,50.62
2022-09-26T06:33:53.481Z,50.34
2022-09-26T06:36:20.245Z,50.47
2022-09-26T06:38:46.854Z,50.39
2022-09-26T06:41:16.678Z,49.89
2022-09-26T06:43:47.660Z,49.90
2022-09-26T06:46:15.404Z,49.05
2022-09-26T06:48:42.743Z,49.74
2022-09-26T06:51:09.959Z,49.59
2022-09-26T06:53:36.624Z,50.04
2022-09-26T06:56:08.706Z,49.57
2022-09-26T06:58:35.382Z,48.84
2022-09-26T07:01:03.916Z,47.63
2022-09-26T07:03:30.664Z,47.24
2022-09-26T07:05:58.378Z,47.75
2022-09-26T07:08:49.989Z,47.42
2022-09-26T07:14:05.739Z,46.17
2022-09-26T07:16:32.379Z,45.83
2022-09-26T07:18:59.036Z,45.74
2022-09-26T07:21:25.607Z,44.92
2022-09-26T07:23:56.826Z,45.49
2022-09-26T07:26:23.438Z,45.69
2022-09-26T07:28:54.568Z,45.36
2022-09-26T07:31:23.707Z,45.07
2022-09-26T07:33:50.727Z,45.39
2022-09-26T07:36:18.527Z,44.79
2022-09-26T07:38:48.615Z,44.13
2022-09-26T07:41:16.217Z,44.32
2022-09-26T07:44:30.255Z,44.38
2022-09-26T07:46:48.541Z,44.10
2022-09-26T07:49:33.815Z,43.99
2022-09-26T07:52:00.814Z,44.21
2022-09-26T07:54:27.449Z,43.34
2022-09-26T07:56:54.448Z,43.26
2022-09-26T07:59:22.965Z,42.85
2022-09-26T08:01:49.742Z,43.20
2022-09-26T08:04:16.869Z,43.42
2022-09-26T08:06:44.096Z,43.05
2022-09-26T08:09:10.784Z,42.20
2022-09-26T08:11:37.615Z,43.00
2022-09-26T08:14:04.258Z,41.67
2022-09-26T08:16:30.976Z,41.60
2022-09-26T08:18:58.659Z,41.89
2022-09-26T08:21:25.423Z,41.85
2022-09-26T08:23:53.658Z,42.05
2022-09-26T08:26:24.010Z,41.52
2022-09-26T08:28:51.032Z,40.46
2022-09-26T08:31:18.737Z,40.40
2022-09-26T08:33:45.459Z,40.20
2022-09-26T08:36:15.498Z,39.18
2022-09-26T08:38:42.185Z,40.10
2022-09-26T08:41:50.038Z,39.99
2022-09-26T08:44:31.834Z,40.25
2022-09-26T08:47:04.973Z,40.12
2022-09-26T08:49:48.960Z,40.10
2022-09-26T08:52:36.408Z,40.37
2022-09-26T08:55:12.736Z,39.83
2022-09-26T09:15:23.949Z,39.63
2022-09-26T09:18:13.839Z,39.32
2022-09-26T09:20:58.714Z,39.89
2022-09-26T09:23:31.188Z,39.26
2022-09-26T09:28:58.371Z,38.35
2022-09-26T09:31:31.943Z,38.15
2022-09-26T09:34:02.743Z,37.81
2022-09-26T09:36:39.075Z,37.52
2022-09-26T09:39:07.691Z,37.84
2022-09-26T09:41:44.756Z,38.02
2022-09-26T09:44:32.083Z,37.86
2022-09-26T09:46:59.182Z,37.95
2022-09-26T09:49:26.638Z,37.88
2022-09-26T09:52:01.912Z,38.22
2022-09-26T09:54:31.321Z,38.42
2022-09-26T09:57:12.067Z,37.95
2022-09-26T10:00:32.294Z,38.95
2022-09-26T10:03:19.223Z,37.80
2022-09-26T10:05:53.678Z,37.95
2022-09-26T10:08:40.483Z,37.83
2022-09-26T10:11:52.671Z,38.11
2022-09-26T10:14:29.933Z,37.19
2022-09-26T10:17:11.610Z,37.47
2022-09-26T10:19:40.247Z,37.62
2022-09-26T10:22:15.592Z,37.24
2022-09-26T10:24:45.345Z,37.55
2022-09-26T10:27:22.679Z,38.13
2022-09-26T10:30:00.702Z,37.33
2022-09-26T10:32:29.093Z,36.76
2022-09-26T10:35:07.846Z,35.70
2022-09-26T10:37:37.690Z,35.85
2022-09-26T10:40:41.305Z,37.04
2022-09-26T10:43:22.743Z,35.81
2022-09-26T10:45:55.387Z,35.85
2022-09-26T10:48:55.314Z,36.28
2022-09-26T10:51:28.797Z,36.82
2022-09-26T10:54:05.361Z,35.63
2022-09-26T10:56:38.478Z,36.38
2022-09-26T10:59:09.009Z,34.93
2022-09-26T11:01:43.248Z,35.80
2022-09-26T11:04:41.313Z,34.86
2022-09-26T11:07:10.981Z,35.08
2022-09-26T11:09:41.093Z,34.46
2022-09-26T11:12:30.772Z,34.64
2022-09-26T11:15:09.760Z,34.36
2022-09-26T11:17:45.360Z,34.70
2022-09-26T11:20:46.252Z,34.67
2022-09-26T11:23:28.075Z,35.71
2022-09-26T11:25:59.534Z,34.48
2022-09-26T11:29:22.069Z,34.34
2022-09-26T11:31:48.837Z,34.50
2022-09-26T11:34:26.710Z,34.57
2022-09-26T11:37:08.520Z,34.41
2022-09-26T11:39:40.841Z,33.81
2022-09-26T11:42:22.386Z,34.31
2022-09-26T11:44:53.410Z,35.08
2022-09-26T11:47:53.415Z,33.85
2022-09-26T11:50:39.690Z,33.81
2022-09-26T11:53:21.588Z,34.44
2022-09-26T11:56:09.616Z,35.25
2022-09-26T11:59:03.492Z,35.64
2022-09-26T12:01:53.102Z,35.93
2022-09-26T12:04:55.490Z,35.36
2022-09-26T12:07:37.539Z,35.52
2022-09-26T12:10:26.372Z,35.84
2022-09-26T12:13:17.459Z,35.40
2022-09-26T12:15:55.065Z,35.21
2022-09-26T12:18:46.135Z,36.30
2022-09-26T12:21:38.707Z,35.17
2022-09-26T12:24:17.009Z,34.40
2022-09-26T12:27:11.131Z,34.39
2022-09-26T12:29:55.215Z,33.70
2022-09-26T12:32:27.407Z,34.20
2022-09-26T12:35:13.813Z,34.23
2022-09-26T12:37:57.582Z,33.98
2022-09-26T12:40:42.348Z,34.99
2022-09-26T12:43:26.436Z,33.82
2022-09-26T12:46:14.974Z,35.57
2022-09-26T12:49:01.974Z,33.77
2022-09-26T12:51:47.303Z,33.69
2022-09-26T12:54:28.527Z,33.84
2022-09-26T12:57:32.931Z,33.92
2022-09-26T13:00:09.679Z,34.20
2022-09-26T13:03:13.973Z,34.85
2022-09-26T13:06:19.564Z,35.07
2022-09-26T13:08:46.114Z,35.74
2022-09-26T13:11:12.751Z,35.13
2022-09-26T13:13:46.395Z,34.29
2022-09-26T13:16:16.170Z,34.68
2022-09-26T13:18:47.285Z,34.63
2022-09-26T13:21:19.394Z,34.98
2022-09-26T13:23:57.905Z,34.45
2022-09-26T13:26:33.555Z,34.77
2022-09-26T13:29:23.265Z,35.57
2022-09-26T13:31:55.489Z,35.93
2022-09-26T13:34:34.872Z,36.05
2022-09-26T13:37:04.366Z,35.39
2022-09-26T13:39:50.784Z,37.13
2022-09-26T13:42:37.358Z,35.85
2022-09-26T13:45:29.780Z,35.53
2022-09-26T13:48:10.127Z,35.44
2022-09-26T13:50:55.936Z,35.84
2022-09-26T13:53:46.226Z,35.85
2022-09-26T13:56:35.178Z,36.77
2022-09-26T13:59:19.924Z,35.23
2022-09-26T14:02:17.649Z,35.51
2022-09-26T14:04:45.974Z,35.68
2022-09-26T14:07:30.842Z,35.46
2022-09-26T14:10:29.291Z,35.58
2022-09-26T14:13:03.744Z,35.48
2022-09-26T14:15:57.987Z,35.07
2022-09-26T14:19:06.517Z,35.87
2022-09-26T14:21:33.515Z,35.67
2022-09-26T14:24:25.682Z,35.70
2022-09-26T14:27:10.287Z,35.02
2022-09-26T14:29:39.706Z,35.84
2022-09-26T14:32:10.370Z,34.63
2022-09-26T14:35:15.414Z,35.16
2022-09-26T14:37:44.402Z,35.09
2022-09-26T14:40:11.029Z,34.54
2022-09-26T14:42:43.717Z,35.42
2022-09-26T14:45:33.232Z,35.36
2022-09-26T14:51:25.189Z,34.97
2022-09-26T14:54:23.181Z,35.64
2022-09-26T14:57:05.720Z,36.09
2022-09-26T14:59:34.861Z,35.39
2022-09-26T15:02:13.556Z,35.82
2022-09-26T15:04:43.204Z,35.93
2022-09-26T15:07:27.295Z,36.24
2022-09-26T15:09:56.617Z,36.44
2022-09-26T15:12:37.331Z,36.55
2022-09-26T15:15:09.713Z,36.38
2022-09-26T15:17:45.505Z,36.89
2022-09-26T15:20:18.425Z,36.70
2022-09-26T15:22:47.276Z,36.36
2022-09-26T15:25:25.575Z,37.26
2022-09-26T15:27:54.662Z,36.61
2022-09-26T15:30:32.256Z,37.10
2022-09-26T15:33:03.233Z,37.46
2022-09-26T15:35:31.387Z,37.03
2022-09-26T15:38:03.843Z,37.03
2022-09-26T15:40:32.194Z,37.55
2022-09-26T15:43:20.708Z,37.81
2022-09-26T15:45:47.870Z,37.23
2022-09-26T15:48:20.558Z,37.66
2022-09-26T15:50:56.126Z,38.73
2022-09-26T15:53:28.711Z,38.33
2022-09-26T15:56:05.811Z,37.55
2022-09-26T15:59:07.609Z,38.14
2022-09-26T16:01:43.635Z,37.58
2022-09-26T16:04:33.350Z,37.79
2022-09-26T16:07:03.385Z,37.46
2022-09-26T16:09:40.233Z,36.46
2022-09-26T16:12:15.984Z,37.26
2022-09-26T16:14:49.274Z,37.61
2022-09-26T16:17:37.560Z,37.29
2022-09-26T16:20:10.250Z,37.43
2022-09-26T16:22:37.010Z,38.30
2022-09-26T16:25:15.861Z,37.15
2022-09-26T16:27:43.369Z,38.08
2022-09-26T16:30:28.295Z,38.89
2022-09-26T16:32:56.012Z,38.34
2022-09-26T16:35:29.474Z,38.33
2022-09-26T16:38:25.726Z,38.15
2022-09-26T16:41:06.238Z,39.12
2022-09-26T16:43:33.006Z,38.80
2022-09-26T16:46:14.627Z,39.08
2022-09-26T16:48:42.899Z,38.81
2022-09-26T16:51:58.268Z,39.24
2022-09-26T16:54:25.560Z,39.50
2022-09-26T16:56:52.188Z,38.54
2022-09-26T16:59:22.748Z,38.72
2022-09-26T17:01:55.410Z,40.16
2022-09-26T17:04:24.138Z,40.36
2022-09-26T17:06:51.240Z,41.15
2022-09-26T17:09:23.019Z,40.01
2022-09-26T17:11:53.340Z,38.93
2022-09-26T17:14:24.217Z,38.81
2022-09-26T17:17:00.652Z,40.29
2022-09-26T17:19:31.770Z,40.12
2022-09-26T17:21:59.429Z,40.42
2022-09-26T17:24:29.104Z,40.89
2022-09-26T17:26:59.506Z,40.26
2022-09-26T17:29:30.368Z,39.48
2022-09-26T17:31:59.075Z,39.25
2022-09-26T17:34:38.704Z,38.67
2022-09-26T17:37:05.440Z,38.99
2022-09-26T17:39:32.083Z,39.10
2022-09-26T17:41:59.119Z,40.73
2022-09-26T17:44:31.917Z,40.07
2022-09-26T17:46:59.153Z,39.24
2022-09-26T17:49:30.943Z,39.71
2022-09-26T17:52:00.633Z,40.16
2022-09-26T17:54:40.745Z,40.29
2022-09-26T17:57:14.295Z,40.56
2022-09-26T17:59:42.221Z,40.68
2022-09-26T18:02:34.963Z,41.11
2022-09-26T18:05:07.192Z,40.82
2022-09-26T18:07:38.213Z,41.65
2022-09-26T18:10:07.374Z,41.36
2022-09-26T18:12:35.000Z,41.55
2022-09-26T18:15:03.972Z,42.30
2022-09-26T18:17:31.102Z,41.72
2022-09-26T18:19:57.715Z,41.84
2022-09-26T18:22:32.551Z,41.81
2022-09-26T18:25:07.105Z,42.19
2022-09-26T18:27:40.527Z,40.50
2022-09-26T18:30:11.743Z,40.69
2022-09-26T18:32:41.704Z,40.01
2022-09-26T18:35:19.854Z,41.38
2022-09-26T18:37:46.606Z,41.04
2022-09-26T18:40:15.370Z,41.13
2022-09-26T18:42:46.074Z,42.15
2022-09-26T18:45:36.635Z,42.06
2022-09-26T18:48:08.200Z,42.58
2022-09-26T18:50:39.387Z,45.27
2022-09-26T18:53:20.965Z,48.48
2022-09-26T18:56:07.051Z,48.46
2022-09-26T18:58:34.447Z,50.18
2022-09-26T19:01:17.591Z,52.54
2022-09-26T19:03:46.935Z,54.11
2022-09-26T19:06:19.993Z,55.21
2022-09-26T19:08:49.732Z,55.12
2022-09-26T19:11:21.850Z,56.14
2022-09-26T19:13:51.474Z,55.90
2022-09-26T19:16:53.237Z,58.51
2022-09-26T19:19:19.906Z,59.03
2022-09-26T19:21:49.453Z,59.63
2022-09-26T19:24:27.970Z,59.39
2022-09-26T19:26:57.882Z,61.92
2022-09-26T19:29:36.951Z,62.73
2022-09-26T19:32:05.244Z,62.08
2022-09-26T19:34:33.040Z,63.65
2022-09-26T19:37:01.591Z,64.70
2022-09-26T19:39:28.290Z,65.65
2022-09-26T19:41:54.880Z,63.89
2022-09-26T19:44:21.562Z,64.35
2022-09-26T19:46:48.272Z,64.85
2022-09-26T19:49:18.131Z,64.72
2022-09-26T19:51:45.073Z,64.35
2022-09-26T19:54:17.059Z,63.50
2022-09-26T19:56:44.223Z,64.39
2022-09-26T19:59:12.873Z,64.32
2022-09-26T20:01:43.026Z,64.35
2022-09-26T20:04:19.172Z,64.80
2022-09-26T20:06:46.901Z,65.48
2022-09-26T20:09:16.735Z,67.18
2022-09-26T20:11:43.691Z,68.17
2022-09-26T20:14:25.494Z,67.74
2022-09-26T20:16:55.447Z,67.37
2022-09-26T20:19:32.261Z,68.40
2022-09-26T20:22:02.577Z,67.86
2022-09-26T20:24:31.671Z,68.29
2022-09-26T20:27:02.751Z,67.93
2022-09-26T20:29:29.505Z,70.06
2022-09-26T20:31:56.194Z,71.05
2022-09-26T20:34:22.887Z,69.68
2022-09-26T20:36:51.577Z,68.81
2022-09-26T20:39:26.381Z,70.82
2022-09-26T20:41:53.291Z,72.14
2022-09-26T20:44:28.823Z,71.61
2022-09-26T20:46:59.774Z,72.04
2022-09-26T20:49:30.284Z,70.87
2022-09-26T20:52:00.041Z,70.68
2022-09-26T20:54:32.183Z,74.23
2022-09-26T20:56:59.261Z,72.55
2022-09-26T20:59:26.685Z,72.57
2022-09-26T21:01:54.833Z,71.25
2022-09-26T21:04:29.981Z,70.88
2022-09-26T21:06:56.654Z,72.42
2022-09-26T21:09:23.330Z,71.47
2022-09-26T21:11:50.317Z,72.36
2022-09-26T21:14:18.285Z,71.32
2022-09-26T21:16:48.151Z,72.06
2022-09-26T21:19:24.246Z,69.85
2022-09-26T21:21:53.812Z,71.13
2022-09-26T21:24:30.972Z,74.26
2022-09-26T21:26:57.622Z,73.71
2022-09-26T21:29:24.260Z,73.03
2022-09-26T21:31:54.351Z,71.42
2022-09-26T21:34:23.679Z,72.34
2022-09-26T21:36:52.071Z,72.01
2022-09-26T21:39:19.146Z,74.01
2022-09-26T21:41:49.403Z,73.21
2022-09-26T21:44:19.117Z,72.11
2022-09-26T21:46:45.767Z,72.34
2022-09-26T21:49:12.576Z,71.76
2022-09-26T21:51:40.150Z,71.79
2022-09-26T21:54:17.702Z,72.57
2022-09-26T21:56:50.592Z,72.18
2022-09-26T21:59:22.621Z,70.61
2022-09-26T22:01:49.644Z,71.95
2022-09-26T22:04:16.763Z,72.47
2022-09-26T22:06:43.543Z,72.66
2022-09-26T22:09:10.936Z,71.66
2022-09-26T22:11:38.378Z,72.43
2022-09-26T22:14:05.641Z,69.95
2022-09-26T22:16:32.677Z,73.02
2022-09-26T22:18:59.673Z,73.02
2022-09-26T22:21:26.436Z,71.99
2022-09-26T22:23:53.165Z,71.50
2022-09-26T22:26:20.175Z,70.78
2022-09-26T22:28:46.805Z,70.89
2022-09-26T22:31:13.696Z,71.12
2022-09-26T22:33:40.988Z,72.29
2022-09-26T22:36:08.615Z,74.03
2022-09-26T22:38:36.889Z,72.69
2022-09-26T22:41:06.121Z,73.19
2022-09-26T22:43:36.311Z,71.38
2022-09-26T22:46:09.988Z,71.53
2022-09-26T22:48:41.883Z,70.95
2022-09-26T22:51:09.418Z,71.93
2022-09-26T22:53:37.885Z,71.76
2022-09-26T22:56:05.551Z,72.19
2022-09-26T22:58:39.226Z,73.70
2022-09-26T23:01:09.512Z,73.65
2022-09-26T23:03:37.037Z,72.05
2022-09-26T23:06:04.971Z,73.82
2022-09-26T23:08:32.784Z,73.87
2022-09-26T23:10:59.677Z,72.76
2022-09-26T23:13:27.332Z,74.73
2022-09-26T23:15:54.268Z,73.40
2022-09-26T23:18:21.710Z,73.16
2022-09-26T23:20:48.449Z,72.88
2022-09-26T23:23:15.166Z,73.02
2022-09-26T23:25:52.478Z,72.45
2022-09-26T23:28:19.100Z,72.33
2022-09-26T23:31:14.444Z,73.67
2022-09-26T23:33:41.224Z,77.95
2022-09-26T23:36:08.867Z,76.57
2022-09-26T23:38:37.670Z,76.50
2022-09-26T23:41:06.211Z,77.06
2022-09-26T23:43:33.431Z,78.28
2022-09-26T23:46:00.221Z,78.11
2022-09-26T23:48:27.117Z,76.79
2022-09-26T23:50:53.758Z,76.08
2022-09-26T23:53:20.543Z,74.42
2022-09-26T23:55:47.182Z,76.09
2022-09-26T23:58:14.117Z,75.29
